createdAt,value
2019-03-09T00:01:17.660Z,100434.86
2019-03-09T00:03:47.207Z,100429.31
2019-03-09T00:06:17.122Z,100426.81
2019-03-09T00:08:46.668Z,100418.64
2019-03-09T00:11:16.534Z,100408.28
2019-03-09T00:13:46.568Z,100401.44
2019-03-09T00:16:16.167Z,100390.20
2019-03-09T00:18:45.719Z,100385.48
2019-03-09T00:21:15.631Z,100385.99
2019-03-09T00:23:44.924Z,100385.63
2019-03-09T00:26:16.126Z,100379.98
2019-03-09T00:28:59.374Z,100376.05
2019-03-09T00:31:46.693Z,100373.38
2019-03-09T00:34:16.431Z,100373.28
2019-03-09T00:36:46.006Z,100369.27
2019-03-09T00:39:15.905Z,100362.33
2019-03-09T00:41:45.492Z,100362.33
2019-03-09T00:44:15.048Z,100357.20
2019-03-09T00:46:44.618Z,100350.72
2019-03-09T00:49:14.289Z,100351.59
2019-03-09T00:51:44.122Z,100349.05
2019-03-09T00:54:15.177Z,100343.45
2019-03-09T00:56:45.048Z,100346.09
2019-03-09T00:59:14.594Z,100344.43
2019-03-09T01:01:44.152Z,100350.20
2019-03-09T01:04:13.889Z,100361.44
2019-03-09T01:06:43.441Z,100338.22
2019-03-09T01:09:13.125Z,100348.20
2019-03-09T01:11:42.796Z,100337.00
2019-03-09T01:14:12.346Z,100335.30
2019-03-09T01:16:42.037Z,100324.52
2019-03-09T01:19:11.622Z,100315.50
2019-03-09T01:21:41.243Z,100310.32
2019-03-09T01:24:10.796Z,100307.73
2019-03-09T01:26:40.447Z,100304.72
2019-03-09T01:29:10.015Z,100304.72
2019-03-09T01:31:39.561Z,100301.76
2019-03-09T01:34:09.541Z,100297.91
2019-03-09T01:36:39.087Z,100288.01
2019-03-09T01:39:08.899Z,100282.33
2019-03-09T01:41:38.638Z,100263.74
2019-03-09T01:44:08.177Z,100266.79
2019-03-09T01:46:37.724Z,100258.98
2019-03-09T01:49:07.815Z,100246.37
2019-03-09T01:51:37.362Z,100248.83
2019-03-09T01:54:07.056Z,100243.49
2019-03-09T01:56:36.704Z,100249.88
2019-03-09T01:59:06.253Z,100238.14
2019-03-09T02:01:35.795Z,100234.27
2019-03-09T02:04:05.593Z,100232.12
2019-03-09T02:06:35.229Z,100226.12
2019-03-09T02:09:06.777Z,100226.57
2019-03-09T02:11:36.616Z,100214.05
2019-03-09T02:14:06.322Z,100219.27
2019-03-09T02:16:35.876Z,100209.83
2019-03-09T02:19:05.517Z,100206.91
2019-03-09T02:21:35.171Z,100201.34
2019-03-09T02:24:04.718Z,100193.61
2019-03-09T02:26:34.275Z,100201.92
2019-03-09T02:29:03.862Z,100192.90
2019-03-09T02:31:33.402Z,100182.66
2019-03-09T02:34:02.956Z,100177.20
2019-03-09T02:36:32.544Z,100169.13
2019-03-09T02:39:12.661Z,100157.54
2019-03-09T02:41:42.263Z,100159.82
2019-03-09T02:44:11.813Z,100168.55
2019-03-09T02:46:41.361Z,100175.97
2019-03-09T02:49:10.920Z,100154.40
2019-03-09T02:51:40.469Z,100157.09
2019-03-09T02:54:10.484Z,100146.34
2019-03-09T02:56:40.041Z,100130.87
2019-03-09T02:59:09.577Z,100113.25
2019-03-09T03:01:40.794Z,100111.59
2019-03-09T03:04:10.356Z,100110.37
2019-03-09T03:06:39.933Z,100108.20
2019-03-09T03:09:10.045Z,100105.63
2019-03-09T03:11:39.588Z,100100.48
2019-03-09T03:14:09.164Z,100085.84
2019-03-09T03:16:39.004Z,100075.50
2019-03-09T03:19:08.578Z,100070.77
2019-03-09T03:21:38.125Z,100061.30
2019-03-09T03:24:07.694Z,100059.55
2019-03-09T03:26:37.254Z,100052.62
2019-03-09T03:29:06.807Z,100046.98
2019-03-09T03:31:36.379Z,100039.59
2019-03-09T03:34:05.943Z,100033.50
2019-03-09T03:36:35.505Z,100025.70
2019-03-09T03:39:07.365Z,100024.83
2019-03-09T03:41:37.212Z,100020.52
2019-03-09T03:44:06.761Z,100007.09
2019-03-09T03:46:36.298Z,99999.78
2019-03-09T03:49:05.977Z,99990.70
2019-03-09T03:51:35.566Z,99995.92
2019-03-09T03:54:05.268Z,99989.89
2019-03-09T03:56:34.902Z,99980.42
2019-03-09T03:59:04.689Z,99978.77
2019-03-09T04:01:34.240Z,99964.53
2019-03-09T04:04:03.941Z,99953.29
2019-03-09T04:06:33.672Z,99951.09
2019-03-09T04:09:04.095Z,99949.31
2019-03-09T04:11:34.772Z,99945.43
2019-03-09T04:14:04.544Z,99940.66
2019-03-09T04:16:34.117Z,99931.17
2019-03-09T04:19:03.684Z,99934.64
2019-03-09T04:21:33.199Z,99923.39
2019-03-09T04:24:02.765Z,99907.84
2019-03-09T04:26:32.394Z,99918.20
2019-03-09T04:29:02.101Z,99907.41
2019-03-09T04:31:31.726Z,99898.37
2019-03-09T04:34:01.721Z,99902.31
2019-03-09T04:36:31.320Z,99897.58
2019-03-09T04:39:00.858Z,99879.45
2019-03-09T04:41:30.427Z,99876.88
2019-03-09T04:43:59.970Z,99872.57
2019-03-09T04:46:29.547Z,99858.36
2019-03-09T04:48:59.092Z,99847.59
2019-03-09T04:51:28.689Z,99845.00
2019-03-09T04:53:58.204Z,99830.31
2019-03-09T04:56:27.919Z,99820.81
2019-03-09T04:58:57.487Z,99816.92
2019-03-09T05:01:27.019Z,99822.61
2019-03-09T05:04:26.991Z,99812.26
2019-03-09T05:06:56.535Z,99807.48
2019-03-09T05:09:50.124Z,99794.98
2019-03-09T05:12:19.676Z,99791.91
2019-03-09T05:14:49.212Z,99770.23
2019-03-09T05:17:18.776Z,99767.13
2019-03-09T05:19:48.328Z,99772.66
2019-03-09T05:22:17.896Z,99758.78
2019-03-09T05:24:47.452Z,99752.70
2019-03-09T05:27:16.990Z,99741.89
2019-03-09T05:29:46.559Z,99737.13
2019-03-09T05:32:16.105Z,99726.76
2019-03-09T05:34:45.690Z,99727.63
2019-03-09T05:37:15.330Z,99731.97
2019-03-09T05:39:44.942Z,99722.05
2019-03-09T05:42:14.527Z,99707.77
2019-03-09T05:44:44.140Z,99706.89
2019-03-09T05:47:13.711Z,99702.98
2019-03-09T05:49:43.266Z,99699.97
2019-03-09T05:52:26.846Z,99700.86
2019-03-09T05:54:56.381Z,99693.95
2019-03-09T05:57:25.931Z,99690.94
2019-03-09T06:00:15.406Z,99693.53
2019-03-09T06:02:44.984Z,99690.89
2019-03-09T06:05:32.749Z,99687.42
2019-03-09T06:08:02.351Z,99678.26
2019-03-09T06:10:31.915Z,99675.58
2019-03-09T06:13:01.448Z,99663.83
2019-03-09T06:15:31.025Z,99661.15
2019-03-09T06:18:00.554Z,99660.71
2019-03-09T06:20:30.144Z,99660.66
2019-03-09T06:22:59.700Z,99651.55
2019-03-09T06:25:29.455Z,99653.67
2019-03-09T06:27:59.008Z,99639.39
2019-03-09T06:30:29.715Z,99638.92
2019-03-09T06:33:21.605Z,99641.95
2019-03-09T06:36:14.046Z,99634.16
2019-03-09T06:38:56.468Z,99635.42
2019-03-09T06:41:34.459Z,99636.70
2019-03-09T06:44:04.008Z,99629.72
2019-03-09T06:46:33.551Z,99618.06
2019-03-09T06:49:03.113Z,99626.70
2019-03-09T06:51:32.662Z,99607.34
2019-03-09T06:54:02.240Z,99602.61
2019-03-09T06:56:31.779Z,99615.55
2019-03-09T06:59:01.464Z,99613.84
2019-03-09T07:01:31.006Z,99610.87
2019-03-09T07:04:00.547Z,99592.30
2019-03-09T07:06:30.122Z,99600.48
2019-03-09T07:08:59.660Z,99614.30
2019-03-09T07:11:29.236Z,99597.03
2019-03-09T07:14:20.112Z,99598.80
2019-03-09T07:16:49.786Z,99576.41
2019-03-09T07:19:19.333Z,99585.94
2019-03-09T07:21:48.876Z,99588.17
2019-03-09T07:24:18.456Z,99584.77
2019-03-09T07:26:48.011Z,99589.19
2019-03-09T07:29:17.586Z,99580.59
2019-03-09T07:31:47.128Z,99586.23
2019-03-09T07:34:25.985Z,99568.60
2019-03-09T07:36:55.529Z,99571.23
2019-03-09T07:39:25.067Z,99579.03
2019-03-09T07:41:54.643Z,99577.78
2019-03-09T07:44:24.182Z,99564.00
2019-03-09T07:46:53.830Z,99572.67
2019-03-09T07:49:23.381Z,99571.86
2019-03-09T07:51:52.933Z,99575.38
2019-03-09T07:54:22.512Z,99571.12
2019-03-09T07:56:52.060Z,99573.80
2019-03-09T07:59:21.641Z,99580.74
2019-03-09T08:01:51.125Z,99568.68
2019-03-09T08:04:20.716Z,99577.38
2019-03-09T08:06:50.566Z,99575.29
2019-03-09T08:09:20.068Z,99582.71
2019-03-09T08:11:49.575Z,99577.98
2019-03-09T08:14:19.433Z,99594.88
2019-03-09T08:16:50.398Z,99600.52
2019-03-09T08:19:20.301Z,99609.23
2019-03-09T08:21:49.840Z,99607.95
2019-03-09T08:24:19.360Z,99594.19
2019-03-09T08:26:48.869Z,99607.73
2019-03-09T08:29:18.392Z,99624.78
2019-03-09T08:31:47.894Z,99610.60
2019-03-09T08:34:17.377Z,99610.66
2019-03-09T08:36:46.922Z,99638.39
2019-03-09T08:39:16.423Z,99629.66
2019-03-09T08:41:45.924Z,99629.59
2019-03-09T08:44:15.777Z,99643.81
2019-03-09T08:46:45.291Z,99651.98
2019-03-09T08:49:14.791Z,99650.19
2019-03-09T08:51:44.328Z,99651.86
2019-03-09T08:54:13.850Z,99639.73
2019-03-09T08:56:43.329Z,99654.86
2019-03-09T08:59:13.041Z,99643.16
2019-03-09T09:01:42.539Z,99652.68
2019-03-09T09:04:12.044Z,99645.20
2019-03-09T09:06:41.571Z,99639.48
2019-03-09T09:09:11.084Z,99631.00
2019-03-09T09:11:40.580Z,99632.94
2019-03-09T09:14:10.119Z,99628.13
2019-03-09T09:16:39.615Z,99637.98
2019-03-09T09:19:09.120Z,99636.43
2019-03-09T09:21:38.776Z,99639.33
2019-03-09T09:24:08.362Z,99627.77
2019-03-09T09:26:37.884Z,99636.90
2019-03-09T09:29:07.497Z,99637.23
2019-03-09T09:31:37.003Z,99647.69
2019-03-09T09:34:06.592Z,99658.74
2019-03-09T09:36:36.644Z,99672.13
2019-03-09T09:39:08.170Z,99665.45
2019-03-09T09:41:37.754Z,99649.13
2019-03-09T09:44:07.376Z,99670.21
2019-03-09T09:46:36.866Z,99675.05
2019-03-09T09:49:06.391Z,99683.28
2019-03-09T09:51:35.917Z,99679.72
2019-03-09T09:54:05.487Z,99688.27
2019-03-09T09:56:35.011Z,99680.55
2019-03-09T09:59:04.531Z,99676.30
2019-03-09T10:01:34.142Z,99691.20
2019-03-09T10:04:04.942Z,99669.30
2019-03-09T10:06:34.667Z,99665.06
2019-03-09T10:09:06.146Z,99657.78
2019-03-09T10:11:35.648Z,99677.33
2019-03-09T10:14:05.350Z,99679.66
2019-03-09T10:16:34.867Z,99672.61
2019-03-09T10:19:04.382Z,99686.54
2019-03-09T10:21:34.087Z,99667.41
2019-03-09T10:24:03.603Z,99671.83
2019-03-09T10:26:33.107Z,99709.20
2019-03-09T10:29:02.637Z,99686.06
2019-03-09T10:31:32.156Z,99700.41
2019-03-09T10:34:01.708Z,99691.41
2019-03-09T10:36:31.218Z,99713.89
2019-03-09T10:39:00.746Z,99708.77
2019-03-09T10:41:30.593Z,99735.50
2019-03-09T10:44:00.109Z,99731.44
2019-03-09T10:46:29.644Z,99743.80
2019-03-09T10:48:59.147Z,99727.91
2019-03-09T10:51:28.755Z,99748.52
2019-03-09T10:53:58.264Z,99741.52
2019-03-09T10:56:27.771Z,99742.84
2019-03-09T10:58:57.292Z,99736.39
2019-03-09T11:01:26.806Z,99749.07
2019-03-09T11:03:56.312Z,99750.41
2019-03-09T11:06:25.832Z,99739.90
2019-03-09T11:08:55.333Z,99742.03
2019-03-09T11:11:24.862Z,99744.64
2019-03-09T11:13:54.434Z,99741.54
2019-03-09T11:16:23.946Z,99741.52
2019-03-09T11:18:53.472Z,99740.16
2019-03-09T11:21:23.050Z,99736.67
2019-03-09T11:23:52.699Z,99734.57
2019-03-09T11:26:22.351Z,99740.88
2019-03-09T11:28:51.995Z,99744.99
2019-03-09T11:31:21.518Z,99740.28
2019-03-09T11:33:51.036Z,99741.94
2019-03-09T11:36:20.564Z,99728.70
2019-03-09T11:38:50.073Z,99732.43
2019-03-09T11:41:19.636Z,99720.23
2019-03-09T11:43:49.153Z,99720.72
2019-03-09T11:46:18.686Z,99721.91
2019-03-09T11:48:48.278Z,99717.89
2019-03-09T11:51:17.798Z,99735.22
2019-03-09T11:53:47.324Z,99728.19
2019-03-09T11:56:16.853Z,99717.16
2019-03-09T11:58:46.334Z,99717.09
2019-03-09T12:01:15.875Z,99725.41
2019-03-09T12:03:47.288Z,99712.80
2019-03-09T12:06:16.786Z,99720.72
2019-03-09T12:08:46.305Z,99723.02
2019-03-09T12:11:15.879Z,99712.54
2019-03-09T12:13:45.416Z,99718.05
2019-03-09T12:16:14.928Z,99701.66
2019-03-09T12:18:44.621Z,99711.52
2019-03-09T12:21:14.134Z,99693.87
2019-03-09T12:23:43.642Z,99709.04
2019-03-09T12:26:13.157Z,99709.23
2019-03-09T12:28:42.909Z,99707.84
2019-03-09T12:31:12.447Z,99711.58
2019-03-09T12:33:42.044Z,99696.97
2019-03-09T12:36:11.562Z,99711.55
2019-03-09T12:38:41.338Z,99707.23
2019-03-09T12:41:10.854Z,99716.03
2019-03-09T12:43:40.390Z,99706.01
2019-03-09T12:46:09.901Z,99712.54
2019-03-09T12:48:39.408Z,99711.08
2019-03-09T12:51:08.937Z,99698.22
2019-03-09T12:53:38.438Z,99711.64
2019-03-09T12:56:07.972Z,99693.29
2019-03-09T12:58:37.495Z,99709.59
2019-03-09T13:01:07.003Z,99709.31
2019-03-09T13:03:36.528Z,99694.10
2019-03-09T13:06:06.111Z,99705.58
2019-03-09T13:08:36.062Z,99691.34
2019-03-09T13:11:05.588Z,99687.92
2019-03-09T13:13:35.092Z,99692.69
2019-03-09T13:16:04.607Z,99664.77
2019-03-09T13:18:34.110Z,99677.84
2019-03-09T13:21:03.702Z,99674.75
2019-03-09T13:23:33.220Z,99671.24
2019-03-09T13:26:02.805Z,99658.97
2019-03-09T13:28:32.319Z,99665.16
2019-03-09T13:31:01.821Z,99651.17
2019-03-09T13:33:31.351Z,99649.87
2019-03-09T13:36:00.870Z,99650.69
2019-03-09T13:38:30.401Z,99643.68
2019-03-09T13:41:00.026Z,99637.48
2019-03-09T13:43:29.488Z,99635.75
2019-03-09T13:45:59.019Z,99641.16
2019-03-09T13:48:28.542Z,99637.47
2019-03-09T13:50:58.279Z,99631.16
2019-03-09T13:53:27.793Z,99643.50
2019-03-09T13:55:57.304Z,99629.17
2019-03-09T13:58:26.841Z,99639.77
2019-03-09T14:00:56.369Z,99631.08
2019-03-09T14:03:25.907Z,99620.02
2019-03-09T14:05:55.413Z,99622.22
2019-03-09T14:08:25.310Z,99613.45
2019-03-09T14:10:54.826Z,99610.50
2019-03-09T14:13:24.422Z,99600.38
2019-03-09T14:15:53.946Z,99605.17
2019-03-09T14:18:23.452Z,99583.41
2019-03-09T14:20:53.006Z,99594.92
2019-03-09T14:23:22.523Z,99572.42
2019-03-09T14:25:52.033Z,99576.09
2019-03-09T14:28:21.567Z,99557.03
2019-03-09T14:30:51.076Z,99555.93
2019-03-09T14:33:20.942Z,99553.08
2019-03-09T14:35:50.462Z,99574.19
2019-03-09T14:38:19.969Z,99583.91
2019-03-09T14:40:49.514Z,99580.48
2019-03-09T14:43:19.023Z,99578.41
2019-03-09T14:45:48.569Z,99565.81
2019-03-09T14:48:18.073Z,99544.91
2019-03-09T14:50:47.577Z,99537.95
2019-03-09T14:53:17.096Z,99530.53
2019-03-09T14:55:46.610Z,99517.91
2019-03-09T14:58:16.148Z,99522.80
2019-03-09T15:00:45.662Z,99517.19
2019-03-09T15:03:15.183Z,99508.48
2019-03-09T15:05:44.706Z,99509.38
2019-03-09T15:08:14.217Z,99510.18
2019-03-09T15:10:43.736Z,99537.63
2019-03-09T15:13:13.251Z,99548.17
2019-03-09T15:15:42.758Z,99571.52
2019-03-09T15:18:12.275Z,99513.05
2019-03-09T15:20:41.782Z,99502.50
2019-03-09T15:23:11.498Z,99501.43
2019-03-09T15:25:41.007Z,99503.30
2019-03-09T15:28:10.516Z,99503.39
2019-03-09T15:30:40.033Z,99499.49
2019-03-09T15:33:09.551Z,99502.98
2019-03-09T15:35:39.071Z,99496.89
2019-03-09T15:38:08.585Z,99507.30
2019-03-09T15:40:38.108Z,99507.73
2019-03-09T15:43:07.716Z,99493.35
2019-03-09T15:45:37.231Z,99485.09
2019-03-09T15:48:06.754Z,99490.73
2019-03-09T15:50:36.267Z,99495.08
2019-03-09T15:53:05.860Z,99485.95
2019-03-09T15:55:35.380Z,99485.94
2019-03-09T15:58:05.037Z,99489.41
2019-03-09T16:00:34.644Z,99494.20
2019-03-09T16:03:04.156Z,99492.89
2019-03-09T16:05:33.686Z,99499.86
2019-03-09T16:08:03.200Z,99516.43
2019-03-09T16:10:32.757Z,99514.77
2019-03-09T16:13:02.278Z,99527.84
2019-03-09T16:15:31.797Z,99540.89
2019-03-09T16:18:01.329Z,99560.47
2019-03-09T16:20:31.309Z,99563.54
2019-03-09T16:23:00.811Z,99593.95
2019-03-09T16:25:30.327Z,99574.39
2019-03-09T16:27:59.855Z,99584.19
2019-03-09T16:30:29.386Z,99559.34
2019-03-09T16:32:58.883Z,99534.95
2019-03-09T16:35:28.387Z,99485.52
2019-03-09T16:37:57.903Z,99433.53
2019-03-09T16:40:27.573Z,99436.05
2019-03-09T16:42:57.104Z,99445.47
2019-03-09T16:45:26.599Z,99431.14
2019-03-09T16:47:56.114Z,99411.20
2019-03-09T16:50:25.625Z,99393.03
2019-03-09T16:52:55.130Z,99376.17
2019-03-09T16:55:24.688Z,99368.31
2019-03-09T16:57:54.206Z,99381.22
2019-03-09T17:00:25.028Z,99387.19
2019-03-09T17:02:54.607Z,99362.89
2019-03-09T17:05:24.106Z,99345.14
2019-03-09T17:07:53.611Z,99344.65
2019-03-09T17:10:23.123Z,99332.98
2019-03-09T17:12:52.748Z,99344.58
2019-03-09T17:15:24.779Z,99352.75
2019-03-09T17:17:54.281Z,99351.44
2019-03-09T17:20:23.766Z,99345.39
2019-03-09T17:22:53.303Z,99354.08
2019-03-09T17:25:22.808Z,99338.17
2019-03-09T17:27:52.319Z,99335.61
2019-03-09T17:30:22.462Z,99340.44
2019-03-09T17:32:51.973Z,99330.98
2019-03-09T17:35:21.552Z,99330.63
2019-03-09T17:37:51.055Z,99337.98
2019-03-09T17:40:20.644Z,99363.08
2019-03-09T17:42:50.185Z,99382.10
2019-03-09T17:45:25.379Z,99394.66
2019-03-09T17:47:55.097Z,99402.43
2019-03-09T17:50:24.675Z,99409.77
2019-03-09T17:52:54.181Z,99406.70
2019-03-09T17:55:23.768Z,99411.00
2019-03-09T17:57:53.284Z,99414.43
2019-03-09T18:00:42.231Z,99414.86
2019-03-09T18:03:04.918Z,99413.94
2019-03-09T18:05:34.425Z,99430.75
2019-03-09T18:08:03.933Z,99410.41
2019-03-09T18:10:49.823Z,99404.34
2019-03-09T18:13:19.335Z,99402.98
2019-03-09T18:15:48.837Z,99390.42
2019-03-09T18:18:18.368Z,99392.55
2019-03-09T18:20:47.866Z,99392.96
2019-03-09T18:23:17.371Z,99386.47
2019-03-09T18:25:46.878Z,99383.45
2019-03-09T18:28:16.403Z,99386.50
2019-03-09T18:30:46.084Z,99378.75
2019-03-09T18:33:15.662Z,99376.17
2019-03-09T18:35:45.167Z,99342.50
2019-03-09T18:38:14.674Z,99331.25
2019-03-09T18:40:44.162Z,99323.45
2019-03-09T18:43:13.955Z,99318.19
2019-03-09T18:45:43.449Z,99325.54
2019-03-09T18:48:12.957Z,99336.77
2019-03-09T18:50:42.463Z,99323.39
2019-03-09T18:53:11.979Z,99323.88
2019-03-09T18:55:41.473Z,99328.66
2019-03-09T18:58:10.971Z,99319.61
2019-03-09T19:00:40.540Z,99310.98
2019-03-09T19:03:10.058Z,99326.09
2019-03-09T19:05:39.558Z,99321.34
2019-03-09T19:08:09.176Z,99324.41
2019-03-09T19:10:38.668Z,99323.59
2019-03-09T19:13:08.164Z,99335.30
2019-03-09T19:15:37.678Z,99329.30
2019-03-09T19:18:07.167Z,99325.86
2019-03-09T19:20:36.672Z,99327.16
2019-03-09T19:23:06.194Z,99325.02
2019-03-09T19:25:35.820Z,99334.55
2019-03-09T19:28:05.460Z,99341.52
2019-03-09T19:30:35.005Z,99329.44
2019-03-09T19:33:04.514Z,99338.95
2019-03-09T19:35:34.058Z,99336.39
2019-03-09T19:38:03.553Z,99333.39
2019-03-09T19:40:33.147Z,99336.84
2019-03-09T19:43:02.636Z,99343.76
2019-03-09T19:45:32.133Z,99348.09
2019-03-09T19:48:01.652Z,99335.55
2019-03-09T19:50:31.185Z,99344.66
2019-03-09T19:53:00.697Z,99344.25
2019-03-09T19:55:30.211Z,99341.66
2019-03-09T19:57:59.726Z,99341.23
2019-03-09T20:00:29.262Z,99342.97
2019-03-09T20:02:58.721Z,99358.95
2019-03-09T20:05:28.227Z,99362.86
2019-03-09T20:07:57.815Z,99373.25
2019-03-09T20:10:27.633Z,99376.70
2019-03-09T20:12:57.109Z,99377.16
2019-03-09T20:15:26.626Z,99372.41
2019-03-09T20:17:56.134Z,99380.22
2019-03-09T20:20:25.634Z,99387.58
2019-03-09T20:22:56.901Z,99387.58
2019-03-09T20:25:28.449Z,99365.96
2019-03-09T20:27:57.638Z,99409.17
2019-03-09T20:30:27.208Z,99404.82
2019-03-09T20:32:56.721Z,99404.80
2019-03-09T20:35:26.222Z,99412.55
2019-03-09T20:37:56.656Z,99424.60
2019-03-09T20:40:26.486Z,99442.30
2019-03-09T20:42:56.014Z,99469.55
2019-03-09T20:45:25.682Z,99464.36
2019-03-09T20:47:55.176Z,99483.36
2019-03-09T20:50:25.133Z,99514.48
2019-03-09T20:52:54.650Z,99524.42
2019-03-09T20:55:24.237Z,99517.94
2019-03-09T20:57:53.751Z,99555.52
2019-03-09T21:00:24.284Z,99558.93
2019-03-09T21:02:53.780Z,99580.47
2019-03-09T21:05:23.308Z,99601.20
2019-03-09T21:07:53.066Z,99624.94
2019-03-09T21:10:23.012Z,99656.92
2019-03-09T21:13:01.243Z,99652.14
2019-03-09T21:15:30.747Z,99699.20
2019-03-09T21:18:00.318Z,99709.48
2019-03-09T21:20:29.816Z,99705.59
2019-03-09T21:22:59.580Z,99738.36
2019-03-09T21:25:29.057Z,99752.98
2019-03-09T21:27:58.629Z,99743.47
2019-03-09T21:30:28.135Z,99770.20
2019-03-09T21:32:57.639Z,99768.02
2019-03-09T21:35:27.146Z,99805.13
2019-03-09T21:37:56.659Z,99814.95
2019-03-09T21:40:26.192Z,99830.45
2019-03-09T21:42:55.668Z,99816.91
2019-03-09T21:45:25.204Z,99843.46
2019-03-09T21:47:54.700Z,99851.47
2019-03-09T21:50:24.319Z,99850.97
2019-03-09T21:52:53.840Z,99865.95
2019-03-09T21:55:23.342Z,99873.18
2019-03-09T21:57:52.845Z,99873.11
2019-03-09T22:00:23.194Z,99908.48
2019-03-09T22:02:52.881Z,99904.60
2019-03-09T22:05:22.413Z,99914.53
2019-03-09T22:07:51.879Z,99914.08
2019-03-09T22:10:21.403Z,99936.05
2019-03-09T22:12:50.901Z,99927.38
2019-03-09T22:15:20.403Z,99935.50
2019-03-09T22:17:49.974Z,99955.75
2019-03-09T22:20:20.625Z,99959.63
2019-03-09T22:22:50.293Z,99949.28
2019-03-09T22:25:19.940Z,99959.63
2019-03-09T22:27:49.463Z,99954.00
2019-03-09T22:30:21.439Z,99958.76
2019-03-09T22:32:50.956Z,99969.98
2019-03-09T22:35:20.637Z,99966.52
2019-03-09T22:37:50.149Z,99965.23
2019-03-09T22:40:20.711Z,99985.48
2019-03-09T22:42:50.714Z,99979.84
2019-03-09T22:45:20.219Z,99976.80
2019-03-09T22:47:49.952Z,99972.02
2019-03-09T22:50:27.203Z,99993.52
2019-03-09T22:52:56.717Z,99971.37
2019-03-09T22:55:26.231Z,99977.98
2019-03-09T22:57:55.745Z,99967.75
2019-03-09T23:00:28.908Z,99986.11
2019-03-09T23:02:58.386Z,99977.70
2019-03-09T23:05:27.911Z,99985.55
2019-03-09T23:07:57.432Z,99985.27
2019-03-09T23:10:28.544Z,100000.56
2019-03-09T23:12:58.101Z,100007.70
2019-03-09T23:15:27.633Z,99988.27
2019-03-09T23:17:57.140Z,100016.23
2019-03-09T23:20:26.669Z,100007.06
2019-03-09T23:22:56.480Z,100012.89
2019-03-09T23:25:25.977Z,100018.41
2019-03-09T23:27:55.492Z,100027.28
2019-03-09T23:30:25.023Z,100023.78
2019-03-09T23:32:54.669Z,100032.27
2019-03-09T23:35:24.182Z,100030.14
2019-03-09T23:37:53.710Z,100031.84
2019-03-09T23:40:26.316Z,100030.98
2019-03-09T23:42:55.814Z,100033.19
2019-03-09T23:45:27.901Z,100048.41
2019-03-09T23:47:57.457Z,100051.17
2019-03-09T23:50:27.587Z,100051.35
2019-03-09T23:52:57.228Z,100047.70
2019-03-09T23:55:26.873Z,100041.41
2019-03-09T23:57:56.549Z,100054.14
